Terminal Aerodrome Forecast
Issued by NWS

Home | Current Version | Previous Version | Text Only | Print | Product List | Glossary On
Versions: 1 2 3 4 5 6 7 8 9 10 11 12 13 14 15 16 17 18 19 20
000
FTUS43 KTOP 290500
TAFFOE
TAF
KFOE 290534Z 2906/3006 19010KT P6SM BKN250
     FM291000 20007KT 5SM BR SCT006
     FM291500 20012KT P6SM SCT250=

USA.gov is the U.S. government's official web portal to all federal, state and local government web resources and services.